^^
Datos históricos de la estación: Murcia-Puente Tocinos
Diario Informe para Mayo 31, 2019 Unidades:  Inglés    Métrico   Ambas
Diario Semanal Mensual Anual Configurable
  Máximo: Mínimo: Media:
Temperatura: 77.9 °F 60.3 °F 68.9 °F
Punto de rocio: 54.9 °F 46.8 °F 51.4 °F
Humedad: 77% 35% 56%
Velocidad viento: 13mph 0mph 5.4mph
Racha viento: 21.9mph - -
Viento- - ESE
Presión: 30.2 in 30.1 in -
Precipitación: 0 in    
Historical Graphs
 
 
Tabla de datos para Mayo 31, 2019
Hora Temperatura Punto de rocio Presión Viento Velocidad viento Racha viento Humedad Intensidad lluvia(por hora) Nubes
00:04 64.2 °F 54.7 °F 30.2 in NE 4 mph 5.9 mph 71% 0 in CLR
00:09 64.2 °F 54.7 °F 30.2 in NE 4.3 mph 4.6 mph 71% 0 in CLR
00:14 64.2 °F 54.7 °F 30.2 in NE 4.3 mph 5.8 mph 71% 0 in CLR
00:19 64.4 °F 54.9 °F 30.2 in NNE 4 mph 3.5 mph 71% 0 in CLR
00:24 64.2 °F 54.7 °F 30.2 in NNE 4 mph 4.7 mph 71% 0 in CLR
00:29 64.2 °F 54.7 °F 30.2 in NE 3.1 mph 5.2 mph 71% 0 in CLR
00:34 64.2 °F 54.7 °F 30.2 in NE 3.1 mph 4.6 mph 71% 0 in CLR
00:39 64.2 °F 54.7 °F 30.2 in NE 3.6 mph 4.6 mph 71% 0 in CLR
00:44 64 °F 54.3 °F 30.2 in NE 3.6 mph 4.6 mph 71% 0 in CLR
00:49 64 °F 54.3 °F 30.2 in NE 4 mph 5.8 mph 71% 0 in CLR
00:54 63.9 °F 54.7 °F 30.2 in NNE 4 mph 5.8 mph 72% 0 in CLR
00:59 63.9 °F 54.7 °F 30.2 in NE 3.6 mph 4.6 mph 72% 0 in CLR
01:04 63.7 °F 54.5 °F 30.2 in NE 3.6 mph 5.8 mph 72% 0 in CLR
01:09 63.7 °F 54.5 °F 30.2 in NE 3.6 mph 4.6 mph 72% 0 in CLR
01:14 63.7 °F 54.5 °F 30.2 in NE 3.6 mph 3.5 mph 72% 0 in CLR
01:19 63.7 °F 54.9 °F 30.2 in NE 2.9 mph 3.5 mph 73% 0 in CLR
01:24 63.7 °F 54.9 °F 30.2 in NE 2.9 mph 3.5 mph 73% 0 in CLR
01:29 63.5 °F 54.7 °F 30.2 in NE 2 mph 2.3 mph 73% 0 in CLR
01:34 63.5 °F 54.7 °F 30.2 in NE 2 mph 4.6 mph 73% 0 in CLR
01:39 63.3 °F 54.5 °F 30.2 in NNE 2 mph 2.3 mph 73% 0 in CLR
01:44 63.3 °F 54.5 °F 30.2 in ENE 2 mph 3.5 mph 73% 0 in CLR
01:49 63.3 °F 54.5 °F 30.2 in NE 1.8 mph 4.6 mph 73% 0 in CLR
01:54 63.1 °F 54.3 °F 30.2 in NE 1.8 mph   73% 0 in CLR
01:59 63.1 °F 54.3 °F 30.2 in East 1.4 mph 3.1 mph 73% 0 in CLR
02:04 63 °F 54.1 °F 30.2 in East 1.4 mph 4.6 mph 73% 0 in CLR
02:09 62.8 °F 54 °F 30.2 in East 2.4 mph 2.4 mph 73% 0 in CLR
02:14 62.4 °F 53.6 °F 30.2 in East 2.4 mph 3.5 mph 73% 0 in CLR
02:19 62.4 °F 54 °F 30.2 in East 1.8 mph   74% 0 in CLR
02:24 62.4 °F 54 °F 30.2 in East 1.8 mph   74% 0 in CLR
02:29 62.4 °F 54 °F 30.2 in Calm   2.3 mph 74% 0 in CLR
02:34 62.6 °F 54.1 °F 30.2 in Calm   2.3 mph 74% 0 in CLR
02:39 62.4 °F 54 °F 30.2 in SE 1.4 mph   74% 0 in CLR
02:44 62.4 °F 54 °F 30.2 in SE 1.4 mph   74% 0 in CLR
02:49 62.4 °F 54 °F 30.2 in Calm     74% 0 in CLR
02:54 62.4 °F 54 °F 30.2 in Calm     74% 0 in CLR
02:59 62.4 °F 54.3 °F 30.2 in Calm     75% 0 in CLR
03:04 62.4 °F 54.3 °F 30.2 in Calm     75% 0 in CLR
03:09 62.4 °F 54.3 °F 30.2 in Calm     75% 0 in CLR
03:14 62.4 °F 54 °F 30.2 in Calm     74% 0 in CLR
03:19 62.4 °F 54.3 °F 30.2 in Calm     75% 0 in CLR
03:24 62.4 °F 54.3 °F 30.2 in Calm     75% 0 in CLR
03:29 62.4 °F 54.3 °F 30.2 in Calm     75% 0 in CLR
03:34 62.2 °F 54.1 °F 30.2 in Calm     75% 0 in CLR
03:39 62.4 °F 54.3 °F 30.2 in Calm     75% 0 in CLR
03:44 62.2 °F 54.1 °F 30.2 in Calm   2.4 mph 75% 0 in CLR
03:49 62.2 °F 54.1 °F 30.2 in Calm   2.9 mph 75% 0 in CLR
03:54 62.2 °F 54.1 °F 30.2 in Calm   2.3 mph 75% 0 in CLR
03:59 61.9 °F 54 °F 30.2 in SE 1.8 mph   75% 0 in CLR
04:04 61.9 °F 54.1 °F 30.2 in SE 1.8 mph   76% 0 in CLR
04:09 61.7 °F 54.1 °F 30.2 in Calm     76% 0 in CLR
04:14 61.7 °F 54.1 °F 30.2 in Calm     76% 0 in CLR
04:19 61.7 °F 53.8 °F 30.2 in Calm   2.3 mph 75% 0 in CLR
04:24 61.9 °F 53.4 °F 30.2 in Calm   4.6 mph 74% 0 in CLR
04:29 61.9 °F 53.4 °F 30.2 in SE 2.9 mph 4.6 mph 74% 0 in CLR
04:34 61.7 °F 53.2 °F 30.2 in ESE 2.9 mph 5.8 mph 74% 0 in CLR
04:39 61.5 °F 53.2 °F 30.2 in SE 3.1 mph 5.8 mph 74% 0 in CLR
04:44 61.2 °F 53.2 °F 30.2 in South 3.1 mph 5.8 mph 75% 0 in CLR
04:49 61 °F 53.1 °F 30.2 in South 4 mph 5.8 mph 75% 0 in CLR
04:54 61 °F 53.4 °F 30.2 in SSW 4 mph 5.9 mph 76% 0 in CLR
04:59 61 °F 53.4 °F 30.2 in SSW 4 mph 5.8 mph 76% 0 in CLR
05:04 61 °F 53.4 °F 30.2 in SSW 4 mph 5.8 mph 76% 0 in CLR
05:09 61 °F 53.4 °F 30.2 in SSW 4.3 mph 6.9 mph 76% 0 in CLR
05:14 61 °F 53.4 °F 30.2 in SSW 4.3 mph 6.9 mph 76% 0 in CLR
05:19 61 °F 53.4 °F 30.2 in SSW 5.4 mph 6.4 mph 76% 0 in CLR
05:24 61 °F 53.4 °F 30.2 in SSW 5.4 mph 6.9 mph 76% 0 in CLR
05:29 61 °F 53.4 °F 30.2 in SW 4.7 mph 5.8 mph 76% 0 in CLR
05:34 61 °F 53.4 °F 30.2 in SW 4.7 mph 6.9 mph 76% 0 in CLR
05:39 61 °F 53.4 °F 30.2 in SW 4.3 mph 6.9 mph 76% 0 in CLR
05:44 61 °F 53.4 °F 30.2 in SW 4.3 mph 9.2 mph 76% 0 in CLR
05:49 61 °F 53.4 °F 30.2 in WSW 4.7 mph 6.9 mph 76% 0 in CLR
05:54 60.8 °F 53.2 °F 30.2 in SW 4.7 mph 5.9 mph 76% 0 in CLR
05:59 60.6 °F 53.1 °F 30.2 in WNW 4 mph 5.8 mph 76% 0 in CLR
06:04 60.6 °F 53.1 °F 30.2 in WSW 4 mph 4.6 mph 76% 0 in CLR
06:09 60.4 °F 52.9 °F 30.2 in West 3.6 mph 5.8 mph 76% 0 in CLR
06:14 60.4 °F 53.2 °F 30.2 in WSW 3.6 mph 5.8 mph 77% 0 in CLR
06:19 60.4 °F 53.2 °F 30.2 in WSW 3.6 mph 4.6 mph 77% 0 in CLR
06:24 60.4 °F 53.2 °F 30.2 in WSW 3.6 mph 3.5 mph 77% 0 in CLR
06:29 60.4 °F 52.9 °F 30.2 in WSW 2.9 mph 4.6 mph 76% 0 in CLR
06:34 60.3 °F 52.7 °F 30.2 in WSW 2.9 mph 3.6 mph 76% 0 in CLR
06:39 60.3 °F 52.7 °F 30.2 in WSW 3.6 mph 4.6 mph 76% 0 in CLR
06:44 60.3 °F 52.7 °F 30.2 in SW 3.6 mph 4.6 mph 76% 0 in CLR
06:49 60.3 °F 52.7 °F 30.2 in SW 3.6 mph 6.9 mph 76% 0 in CLR
06:54 60.3 °F 52.7 °F 30.2 in SW 3.6 mph 6.9 mph 76% 0 in CLR
06:59 60.3 °F 52.3 °F 30.2 in SW 4.7 mph 5.8 mph 75% 0 in CLR
07:04 60.3 °F 52.3 °F 30.2 in WSW 4.7 mph 4.6 mph 75% 0 in CLR
07:09 60.4 °F 52.5 °F 30.2 in West 3.6 mph 4.6 mph 75% 0 in CLR
07:14 60.3 °F 52 °F 30.2 in WSW 3.6 mph 4.6 mph 74% 0 in CLR
07:19 60.3 °F 52.3 °F 30.2 in WSW 3.6 mph 4.7 mph 75% 0 in CLR
07:24 60.3 °F 52.3 °F 30.2 in SW 3.6 mph 4.6 mph 75% 0 in CLR
07:29 60.6 °F 52.3 °F 30.2 in WSW 2.9 mph 4.6 mph 74% 0 in CLR
07:34 60.6 °F 52.5 °F 30.2 in SW 2.9 mph 4.6 mph 75% 0 in CLR
07:39 60.8 °F 52.5 °F 30.2 in WSW 2.9 mph 3.6 mph 74% 0 in CLR
07:44 61 °F 52.5 °F 30.2 in WSW 2.9 mph 4.6 mph 74% 0 in CLR
07:49 61.2 °F 52.9 °F 30.2 in WSW 2.4 mph 3.6 mph 74% 0 in CLR
07:54 61.2 °F 52.9 °F 30.2 in WNW 2.4 mph 4.7 mph 74% 0 in CLR
07:59 61.3 °F 53.1 °F 30.2 in West 2.9 mph 4.6 mph 74% 0 in CLR
08:04 61.3 °F 53.1 °F 30.2 in West 2.9 mph 4.6 mph 74% 0 in CLR
08:09 61.5 °F 52.9 °F 30.2 in SW 3.6 mph 5.8 mph 73% 0 in CLR
08:14 61.9 °F 52.9 °F 30.2 in WSW 3.6 mph 4.6 mph 72% 0 in CLR
08:19 62.1 °F 52.5 °F 30.2 in SSW 4 mph 5.8 mph 71% 0 in CLR
08:24 62.1 °F 52.9 °F 30.2 in SW 4 mph 4.7 mph 72% 0 in CLR
08:29 62.2 °F 52.7 °F 30.2 in South 4 mph 4.6 mph 71% 0 in CLR
08:34 62.4 °F 52.5 °F 30.2 in WSW 4 mph 5.2 mph 70% 0 in CLR
08:39 62.6 °F 52.7 °F 30.2 in SW 3.6 mph 5.8 mph 70% 0 in CLR
08:44 63 °F 52.5 °F 30.2 in WSW 3.6 mph 6.4 mph 69% 0 in CLR
08:49 63.1 °F 52.9 °F 30.2 in SSW 4 mph 5.8 mph 69% 0 in CLR
08:54 63.5 °F 53.1 °F 30.2 in SW 4 mph 4.6 mph 69% 0 in CLR
08:59 63.9 °F 53.1 °F 30.2 in NW 3.1 mph 4.7 mph 68% 0 in CLR
09:04 64.2 °F 53.1 °F 30.2 in WSW 3.1 mph 5.9 mph 67% 0 in CLR
09:09 64.2 °F 52.5 °F 30.2 in WSW 4.3 mph 6.9 mph 66% 0 in CLR
09:14 64.4 °F 53.2 °F 30.2 in WSW 4.3 mph 5.8 mph 67% 0 in CLR
09:19 64.6 °F 52.5 °F 30.2 in West 4.3 mph 4.6 mph 65% 0 in CLR
09:24 64.9 °F 53.2 °F 30.2 in South 4.3 mph 4.7 mph 66% 0 in CLR
09:29 65.5 °F 53.1 °F 30.2 in South 3.6 mph 6.9 mph 64% 0 in CLR
09:34 65.5 °F 53.1 °F 30.2 in SSE 3.6 mph 5.8 mph 64% 0 in CLR
09:39 65.8 °F 53.2 °F 30.2 in SSW 4 mph 4.6 mph 64% 0 in CLR
09:44 66.2 °F 53.2 °F 30.2 in SSW 4 mph 4.7 mph 63% 0 in CLR
09:49 66.4 °F 53.1 °F 30.2 in SSW 3.6 mph 5.8 mph 62% 0 in CLR
09:54 66.6 °F 53.1 °F 30.2 in WNW 3.6 mph 5.8 mph 62% 0 in CLR
09:59 66.6 °F 53.1 °F 30.2 in SW 4.3 mph 4.6 mph 62% 0 in CLR
10:04 67.3 °F 53.4 °F 30.2 in SE 4.3 mph 4.6 mph 61% 0 in CLR
10:09 67.8 °F 53.1 °F 30.2 in NW 1.8 mph 3.5 mph 59% 0 in CLR
10:14 68.4 °F 53.1 °F 30.2 in WSW 1.8 mph 5.4 mph 58% 0 in CLR
10:19 68.4 °F 52.5 °F 30.2 in SSW 3.1 mph 4.6 mph 57% 0 in CLR
10:24 68.9 °F 52.2 °F 30.2 in SSE 3.1 mph 4.6 mph 55% 0 in CLR
10:29 69.6 °F 52.2 °F 30.2 in SSE 1.8 mph 2.9 mph 54% 0 in CLR
10:34 70 °F 51.4 °F 30.2 in SSW 1.8 mph 1.2 mph 52% 0 in CLR
10:39 70.7 °F 51.6 °F 30.2 in East 1.4 mph 4.6 mph 51% 0 in CLR
10:44 71.4 °F 51.3 °F 30.2 in East 1.4 mph 4.3 mph 49% 0 in CLR
10:49 72.1 °F 51.4 °F 30.2 in NE 1.8 mph 3.1 mph 48% 0 in CLR
10:54 72.5 °F 50.5 °F 30.2 in NW 1.8 mph 5.8 mph 46% 0 in CLR
10:59 72.7 °F 50.7 °F 30.2 in East 2.4 mph 5.8 mph 46% 0 in CLR
11:04 72.7 °F 50.2 °F 30.2 in NNW 2.4 mph 5.8 mph 45% 0 in CLR
11:09 72.3 °F 51.1 °F 30.2 in NNE 3.1 mph 5.2 mph 47% 0 in CLR
11:14 72.3 °F 50.4 °F 30.2 in NNE 3.1 mph 6.9 mph 46% 0 in CLR
11:19 72.5 °F 49.8 °F 30.2 in ESE 4.3 mph 4.7 mph 45% 0 in CLR
11:24 72.9 °F 49.1 °F 30.2 in East 4.3 mph 5.8 mph 43% 0 in CLR
11:29 73.2 °F 50 °F 30.2 in ENE 4.3 mph 8.1 mph 44% 0 in CLR
11:34 73.2 °F 48.7 °F 30.2 in ENE 4.3 mph 12.7 mph 42% 0 in CLR
11:39 73.4 °F 46.9 °F 30.2 in ENE 6.9 mph 12.5 mph 39% 0 in CLR
11:44 73.2 °F 47.5 °F 30.2 in ENE 6.9 mph 13.8 mph 40% 0 in CLR
11:49 73.8 °F 48.6 °F 30.2 in NE 8.1 mph 10.4 mph 41% 0 in CLR
11:54 73.9 °F 48 °F 30.2 in ENE 8.1 mph 10.4 mph 40% 0 in CLR
11:59 73.8 °F 48.6 °F 30.2 in East 8.1 mph 11.5 mph 41% 0 in CLR
12:04 73.9 °F 48.7 °F 30.2 in NE 8.1 mph 10.4 mph 41% 0 in CLR
12:09 74.5 °F 48.6 °F 30.2 in ESE 7.6 mph 9.2 mph 40% 0 in CLR
12:14 74.8 °F 48.2 °F 30.2 in ENE 7.6 mph 15 mph 39% 0 in CLR
12:19 74.7 °F 48.7 °F 30.2 in NNE 6.2 mph 10.4 mph 40% 0 in CLR
12:24 74.8 °F 48.9 °F 30.2 in WNW 6.2 mph 6.4 mph 40% 0 in CLR
12:29 75.6 °F 48.9 °F 30.2 in ENE 4.3 mph 5.8 mph 39% 0 in CLR
12:34 75.9 °F 48.6 °F 30.2 in ENE 4.3 mph 10 mph 38% 0 in CLR
12:39 75.9 °F 46.9 °F 30.2 in East 5.9 mph 10.4 mph 36% 0 in CLR
12:44 75.7 °F 46.9 °F 30.2 in NE 5.9 mph 13.8 mph 36% 0 in CLR
12:49 75.6 °F 47.5 °F 30.2 in East 6.9 mph 11.5 mph 37% 0 in CLR
12:54 76.1 °F 47.1 °F 30.2 in NE 6.9 mph 11.5 mph 36% 0 in CLR
12:59 76.1 °F 47.8 °F 30.2 in NE 7.4 mph 13.8 mph 37% 0 in CLR
13:04 76.5 °F 48.2 °F 30.2 in ESE 7.4 mph 8.1 mph 37% 0 in CLR
13:09 76.6 °F 49.1 °F 30.2 in NW 5.9 mph 16.1 mph 38% 0 in CLR
13:14 76.8 °F 49.3 °F 30.2 in NE 5.9 mph 11.5 mph 38% 0 in CLR
13:19 76.6 °F 47.7 °F 30.2 in WNW 8.7 mph 13.8 mph 36% 0 in CLR
13:24 76.6 °F 49.1 °F 30.2 in ENE 8.7 mph 16.1 mph 38% 0 in CLR
13:29 76.3 °F 48.7 °F 30.2 in North 9.2 mph 11.2 mph 38% 0 in CLR
13:34 76.5 °F 48.2 °F 30.2 in NE 9.2 mph 13.8 mph 37% 0 in CLR
13:39 76.5 °F 46.8 °F 30.2 in NE 7.4 mph 14.5 mph 35% 0 in CLR
13:44 76.5 °F 48.2 °F 30.2 in ENE 7.4 mph 13.8 mph 37% 0 in CLR
13:49 76.5 °F 48.2 °F 30.2 in North 10 mph 12.7 mph 37% 0 in CLR
13:54 76.8 °F 48.6 °F 30.2 in NE 10 mph 15 mph 37% 0 in CLR
13:59 76.6 °F 48.4 °F 30.2 in ENE 8.5 mph 13.8 mph 37% 0 in CLR
14:04 76.5 °F 48.9 °F 30.2 in ENE 8.5 mph 12.7 mph 38% 0 in CLR
14:09 76.6 °F 49.1 °F 30.2 in NE 8.7 mph 13.8 mph 38% 0 in CLR
14:14 76.6 °F 49.1 °F 30.2 in NE 8.7 mph 14.5 mph 38% 0 in CLR
14:19 76.5 °F 48.9 °F 30.2 in ENE 10 mph 18.4 mph 38% 0 in CLR
14:24 76.6 °F 49.1 °F 30.2 in NE 10 mph 16.1 mph 38% 0 in CLR
14:29 77 °F 50.2 °F 30.2 in ESE 9.2 mph 12.5 mph 39% 0 in CLR
14:34 76.8 °F 50 °F 30.2 in East 9.2 mph 12.7 mph 39% 0 in CLR
14:39 77 °F 50.2 °F 30.2 in ENE 8.7 mph 16.8 mph 39% 0 in CLR
14:44 76.8 °F 50 °F 30.2 in ENE 8.7 mph 13.8 mph 39% 0 in CLR
14:49 76.6 °F 50.5 °F 30.2 in ESE 10.2 mph 13.7 mph 40% 0 in CLR
14:54 77 °F 50.7 °F 30.2 in NNE 10.2 mph 15 mph 40% 0 in CLR
14:59 76.8 °F 51.3 °F 30.2 in NNE 8.7 mph 19.7 mph 41% 0 in CLR
15:04 77.2 °F 51.1 °F 30.2 in East 8.7 mph 13.8 mph 40% 0 in CLR
15:09 77.2 °F 51.1 °F 30.2 in ENE 10 mph 12.7 mph 40% 0 in CLR
15:14 76.8 °F 50 °F 30.2 in ENE 10 mph 15.6 mph 39% 0 in CLR
15:19 76.8 °F 50 °F 30.2 in NNE 11.2 mph 18.4 mph 39% 0 in CLR
15:24 76.8 °F 50.7 °F 30.2 in NE 11.2 mph 18.4 mph 40% 0 in CLR
15:29 76.6 °F 49.8 °F 30.2 in ENE 12.3 mph 17 mph 39% 0 in CLR
15:34 76.8 °F 50.7 °F 30.2 in NNE 12.3 mph 12.3 mph 40% 0 in CLR
15:39 77.7 °F 49.5 °F 30.2 in NNE 8.7 mph 16.1 mph 37% 0 in CLR
15:44 77.9 °F 48.7 °F 30.2 in NE 8.7 mph 13.8 mph 36% 0 in CLR
15:49 77.2 °F 48.9 °F 30.2 in ENE 8.1 mph 13.8 mph 37% 0 in CLR
15:54 77 °F 50.2 °F 30.2 in NNE 8.1 mph 16.1 mph 39% 0 in CLR
15:59 77.4 °F 49.8 °F 30.2 in NNE 10.2 mph 13.8 mph 38% 0 in CLR
16:04 77.2 °F 50.4 °F 30.2 in ENE 10.2 mph 15 mph 39% 0 in CLR
16:09 76.6 °F 49.8 °F 30.2 in NE 9.7 mph 21.9 mph 39% 0 in CLR
16:14 77.2 °F 50.4 °F 30.2 in NE 9.7 mph 11.5 mph 39% 0 in CLR
16:19 77.4 °F 49.8 °F 30.2 in NNE 9.7 mph 17.3 mph 38% 0 in CLR
16:24 76.6 °F 49.1 °F 30.2 in NE 9.7 mph 18.4 mph 38% 0 in CLR
16:29 76.5 °F 50.4 °F 30.2 in NW 13 mph 16.8 mph 40% 0 in CLR
16:34 76.6 °F 49.8 °F 30.2 in NE 13 mph 15 mph 39% 0 in CLR
16:39 76.6 °F 49.8 °F 30.2 in NW 10 mph 13.8 mph 39% 0 in CLR
16:44 77.2 °F 49.6 °F 30.2 in North 10 mph 17.3 mph 38% 0 in CLR
16:49 76.5 °F 49.6 °F 30.2 in NE 9.7 mph 16.1 mph 39% 0 in CLR
16:54 76.3 °F 48.7 °F 30.2 in East 9.7 mph 16.1 mph 38% 0 in CLR
16:59 76.1 °F 49.3 °F 30.2 in ENE 10.7 mph 18.4 mph 39% 0 in CLR
17:04 76.3 °F 48.7 °F 30.2 in NE 10.7 mph 17.3 mph 38% 0 in CLR
17:09 75.9 °F 48.6 °F 30.2 in NNE 10 mph 16.1 mph 38% 0 in CLR
17:14 75.7 °F 48.9 °F 30.2 in NE 10 mph 14.5 mph 39% 0 in CLR
17:19 75.9 °F 48.6 °F 30.2 in ENE 10.2 mph 11.5 mph 38% 0 in CLR
17:24 76.5 °F 48.2 °F 30.2 in NE 10.2 mph 17.5 mph 37% 0 in CLR
17:29 75.7 °F 48.4 °F 30.2 in NNE 10.7 mph 13.8 mph 38% 0 in CLR
17:34 75.7 °F 48.4 °F 30.1 in ENE 10.7 mph 17.3 mph 38% 0 in CLR
17:39 75.6 °F 48.2 °F 30.1 in NE 10.2 mph 18.4 mph 38% 0 in CLR
17:44 75.9 °F 48.6 °F 30.1 in NE 10.2 mph 15.2 mph 38% 0 in CLR
17:49 75.6 °F 47.5 °F 30.1 in East 10.2 mph 18.4 mph 37% 0 in CLR
17:54 75.6 °F 48.2 °F 30.1 in ESE 10.2 mph 10.4 mph 38% 0 in CLR
17:59 75.6 °F 49.5 °F 30.1 in North 9.7 mph 13.8 mph 40% 0 in CLR
18:04 75.6 °F 49.5 °F 30.1 in NNE 9.7 mph 13.8 mph 40% 0 in CLR
18:09 75.9 °F 49.3 °F 30.1 in East 8.7 mph 12.5 mph 39% 0 in CLR
18:14 75.4 °F 50 °F 30.1 in NE 8.7 mph 17.3 mph 41% 0 in CLR
18:19 75 °F 49.1 °F 30.1 in ENE 10.7 mph 16.1 mph 40% 0 in CLR
18:24 75 °F 50.4 °F 30.1 in ESE 10.7 mph 17.3 mph 42% 0 in CLR
18:29 74.8 °F 50.2 °F 30.1 in NE 10.2 mph 11.5 mph 42% 0 in CLR
18:34 74.8 °F 50.2 °F 30.1 in North 10.2 mph 16.1 mph 42% 0 in CLR
18:39 74.8 °F 49.6 °F 30.1 in NNE 10.2 mph 20.7 mph 41% 0 in CLR
18:44 75 °F 49.6 °F 30.1 in NNE 10.2 mph 15 mph 41% 0 in CLR
18:49 74.7 °F 50 °F 30.1 in ENE 10.7 mph 15 mph 42% 0 in CLR
18:54 74.7 °F 50 °F 30.1 in ENE 10.7 mph 15 mph 42% 0 in CLR
18:59 75 °F 49.6 °F 30.1 in ENE 8.7 mph 11.5 mph 41% 0 in CLR
19:04 75 °F 49.6 °F 30.1 in NNE 8.7 mph 11.5 mph 41% 0 in CLR
19:09 74.8 °F 50.7 °F 30.1 in NE 7.6 mph 16.8 mph 43% 0 in CLR
19:14 74.5 °F 50.5 °F 30.1 in ENE 7.6 mph 12.7 mph 43% 0 in CLR
19:19 74.7 °F 51.3 °F 30.1 in NNE 9.2 mph 10.7 mph 44% 0 in CLR
19:24 74.7 °F 51.3 °F 30.1 in NE 9.2 mph 10.4 mph 44% 0 in CLR
19:29 74.8 °F 51.4 °F 30.1 in East 7.4 mph 10 mph 44% 0 in CLR
19:34 74.5 °F 50.5 °F 30.1 in NE 7.4 mph 12.7 mph 43% 0 in CLR
19:39 74.1 °F 50.2 °F 30.1 in NNE 8.1 mph 13 mph 43% 0 in CLR
19:44 73.8 °F 50.5 °F 30.1 in NE 8.1 mph 13.8 mph 44% 0 in CLR
19:49 73.8 °F 49.8 °F 30.1 in NNE 9.2 mph 15 mph 43% 0 in CLR
19:54 73.4 °F 50.2 °F 30.1 in NNE 9.2 mph 13.8 mph 44% 0 in CLR
19:59 73.2 °F 49.5 °F 30.1 in East 10 mph 16.1 mph 43% 0 in CLR
20:04 73.2 °F 50 °F 30.1 in NE 10 mph 16.1 mph 44% 0 in CLR
20:09 73 °F 49.3 °F 30.1 in ENE 8.5 mph 15 mph 43% 0 in CLR
20:14 72.9 °F 49.6 °F 30.1 in NE 8.5 mph 12.7 mph 44% 0 in CLR
20:19 72.9 °F 49.6 °F 30.1 in NE 8.1 mph 8.1 mph 44% 0 in CLR
20:24 72.9 °F 49.1 °F 30.1 in NNE 8.1 mph 10.4 mph 43% 0 in CLR
20:29 72.5 °F 48.7 °F 30.1 in NNE 8.1 mph 9.2 mph 43% 0 in CLR
20:34 72.1 °F 48.4 °F 30.1 in ENE 8.1 mph 15 mph 43% 0 in CLR
20:39 72.1 °F 48.9 °F 30.1 in NE 7.6 mph 9.2 mph 44% 0 in CLR
20:44 72 °F 48.9 °F 30.1 in NE 7.6 mph 11.5 mph 44% 0 in CLR
20:49 71.8 °F 48 °F 30.1 in NE 6.9 mph 11.5 mph 43% 0 in CLR
20:54 71.8 °F 48 °F 30.1 in NE 6.9 mph 11.5 mph 43% 0 in CLR
20:59 71.4 °F 47.7 °F 30.1 in NE 6.9 mph 10.4 mph 43% 0 in CLR
21:04 71.4 °F 48.4 °F 30.1 in NE 6.9 mph 11.8 mph 44% 0 in CLR
21:09 71.2 °F 48.2 °F 30.1 in NNE 7.6 mph 9.2 mph 44% 0 in CLR
21:14 71.1 °F 48 °F 30.1 in ENE 7.6 mph 6.9 mph 44% 0 in CLR
21:19 70.9 °F 48.6 °F 30.1 in ENE 5.2 mph 9.2 mph 45% 0 in CLR
21:24 70.9 °F 48.6 °F 30.1 in NE 5.2 mph 6.9 mph 45% 0 in CLR
21:29 70.5 °F 48.7 °F 30.1 in NE 4.7 mph 9.2 mph 46% 0 in CLR
21:34 70.3 °F 48.6 °F 30.1 in ENE 4.7 mph 6.9 mph 46% 0 in CLR
21:39 70.2 °F 48.4 °F 30.1 in NNE 5.4 mph 7.4 mph 46% 0 in CLR
21:44 69.8 °F 48.7 °F 30.1 in NE 5.4 mph 8.1 mph 47% 0 in CLR
21:49 69.6 °F 48.6 °F 30.2 in NE 5.4 mph 8.1 mph 47% 0 in CLR
21:54 69.6 °F 49.1 °F 30.2 in NE 5.4 mph 6.4 mph 48% 0 in CLR
21:59 69.4 °F 49.5 °F 30.2 in NE 5.2 mph 5.8 mph 49% 0 in CLR
22:04 69.3 °F 49.8 °F 30.2 in ENE 5.2 mph 5.8 mph 50% 0 in CLR
22:09 69.1 °F 49.6 °F 30.2 in NNE 4 mph 5.8 mph 50% 0 in CLR
22:14 68.7 °F 49.8 °F 30.2 in NE 4 mph 6.4 mph 51% 0 in CLR
22:19 68.5 °F 50.7 °F 30.2 in ENE 4.3 mph 5.9 mph 53% 0 in CLR
22:24 68.5 °F 50.7 °F 30.2 in NE 4.3 mph 5.8 mph 53% 0 in CLR
22:29 68.4 °F 51.1 °F 30.2 in NE 3.6 mph 5.8 mph 54% 0 in CLR
22:34 68.2 °F 51.4 °F 30.2 in NE 3.6 mph 5.8 mph 55% 0 in CLR
22:39 68.2 °F 52 °F 30.2 in NE 3.6 mph 5.8 mph 56% 0 in CLR
22:44 68 °F 51.6 °F 30.2 in NE 3.6 mph 5.4 mph 56% 0 in CLR
22:49 67.8 °F 51.4 °F 30.2 in East 3.6 mph 4.6 mph 56% 0 in CLR
22:54 67.8 °F 52 °F 30.2 in ENE 3.6 mph 4.6 mph 57% 0 in CLR
22:59 67.8 °F 52 °F 30.2 in East 2.9 mph 4.7 mph 57% 0 in CLR
23:04 67.8 °F 52.5 °F 30.2 in ENE 2.9 mph 3.5 mph 58% 0 in CLR
23:09 67.6 °F 52.3 °F 30.2 in NE 2.9 mph 4.6 mph 58% 0 in CLR
23:14 67.6 °F 52.9 °F 30.2 in NNE 2.9 mph 5.2 mph 59% 0 in CLR
23:19 67.5 °F 52.5 °F 30.2 in East 3.1 mph 4.6 mph 59% 0 in CLR
23:24 67.5 °F 53.1 °F 30.2 in ENE 3.1 mph 4.6 mph 60% 0 in CLR
23:29 67.5 °F 52.5 °F 30.2 in East 2.4 mph 4.6 mph 59% 0 in CLR
23:34 67.5 °F 52.5 °F 30.2 in NNE 2.4 mph 5.4 mph 59% 0 in CLR
23:39 67.3 °F 52.5 °F 30.2 in ENE 2.9 mph 4.6 mph 59% 0 in CLR
23:44 67.1 °F 52.7 °F 30.2 in ESE 2.9 mph 4.6 mph 60% 0 in CLR
23:49 66.9 °F 52.5 °F 30.2 in ESE 2 mph 4.6 mph 60% 0 in CLR
23:54 66.9 °F 52.5 °F 30.2 in ESE 2 mph 2.3 mph 60% 0 in CLR
23:59 66.7 °F 52.9 °F 30.2 in ESE 1.4 mph 2.3 mph 61% 0 in CLR
Murcia-Puente Tocinos, España
Compliments of Weather Underground - 2.75 mb

La estación de MeteoMurcia.com, publica sus datos en los siguientes proyectos:

Weather Underground PWS IMURCIAP2 Meteoclimatic www.awekas.at

W3Counter
Web Analytics